Bangui, Central African Republic
Current Conditions -  °F | °C
As of 9:00 PM on Saturday 20 Dec 2014 (Local Time) from FEFF Reporting Station
Smoke Smoke  
Wind Chill: 72°   Ceiling: Unl
Heat Index: 72°   Visibility: 1.8mi
Dew Point: 68°   Wind: 0mph
Humidity: 88%   Direction: NA
Pressure: 29.88"   Gusts: NA
Location:  4.36°N, 18.56°E
Report Text: FEFF 202000Z 00000KT 3000 FU NSC 22/20 Q1012 NOSIG
Loading
Personal Weather Stations






























Interactive Weather Map New forecast layout! Learn more

10-Day Weather Forecast

Advertisements
Track Severe Weather on mobile